sensor_id;sensor_type;location;lat;lon;timestamp;temperature;humidity
4433;DHT22;2229;48.708;9.706;2023-05-10T00:00:43;15.70;99.90
4433;DHT22;2229;48.708;9.706;2023-05-10T00:03:12;15.60;99.90
4433;DHT22;2229;48.708;9.706;2023-05-10T00:05:41;15.70;99.90
4433;DHT22;2229;48.708;9.706;2023-05-10T00:08:08;15.60;99.90
4433;DHT22;2229;48.708;9.706;2023-05-10T00:10:35;15.70;99.90
4433;DHT22;2229;48.708;9.706;2023-05-10T00:13:03;15.70;99.90
4433;DHT22;2229;48.708;9.706;2023-05-10T00:15:30;15.60;99.90
4433;DHT22;2229;48.708;9.706;2023-05-10T00:17:58;15.60;99.90
4433;DHT22;2229;48.708;9.706;2023-05-10T00:20:25;15.60;99.90
4433;DHT22;2229;48.708;9.706;2023-05-10T00:22:55;15.50;99.90
4433;DHT22;2229;48.708;9.706;2023-05-10T00:25:24;15.50;99.90
4433;DHT22;2229;48.708;9.706;2023-05-10T00:27:52;15.40;99.90
4433;DHT22;2229;48.708;9.706;2023-05-10T00:30:21;15.40;99.90
4433;DHT22;2229;48.708;9.706;2023-05-10T00:32:48;15.30;99.90
4433;DHT22;2229;48.708;9.706;2023-05-10T00:35:17;15.30;99.90
4433;DHT22;2229;48.708;9.706;2023-05-10T00:37:44;15.20;99.90
4433;DHT22;2229;48.708;9.706;2023-05-10T00:40:13;15.10;99.90
4433;DHT22;2229;48.708;9.706;2023-05-10T00:42:44;15.10;99.90
4433;DHT22;2229;48.708;9.706;2023-05-10T00:45:12;15.00;99.90
4433;DHT22;2229;48.708;9.706;2023-05-10T00:47:41;14.90;99.90
4433;DHT22;2229;48.708;9.706;2023-05-10T00:50:09;14.90;99.90
4433;DHT22;2229;48.708;9.706;2023-05-10T00:52:37;14.80;99.90
4433;DHT22;2229;48.708;9.706;2023-05-10T00:55:06;14.80;99.90
4433;DHT22;2229;48.708;9.706;2023-05-10T00:57:35;14.80;99.90
4433;DHT22;2229;48.708;9.706;2023-05-10T01:00:03;14.70;99.90
4433;DHT22;2229;48.708;9.706;2023-05-10T01:02:33;14.80;99.90
4433;DHT22;2229;48.708;9.706;2023-05-10T01:05:02;14.80;99.90
4433;DHT22;2229;48.708;9.706;2023-05-10T01:07:31;14.80;99.90
4433;DHT22;2229;48.708;9.706;2023-05-10T01:10:00;14.80;99.90
4433;DHT22;2229;48.708;9.706;2023-05-10T01:12:28;14.80;99.90
4433;DHT22;2229;48.708;9.706;2023-05-10T01:14:57;14.80;99.90
4433;DHT22;2229;48.708;9.706;2023-05-10T01:17:27;14.90;99.90
4433;DHT22;2229;48.708;9.706;2023-05-10T01:19:55;14.90;99.90
4433;DHT22;2229;48.708;9.706;2023-05-10T01:22:50;14.90;99.90
4433;DHT22;2229;48.708;9.706;2023-05-10T01:25:35;14.90;99.90
4433;DHT22;2229;48.708;9.706;2023-05-10T01:31:33;14.90;99.90
4433;DHT22;2229;48.708;9.706;2023-05-10T01:34:07;14.90;99.90
4433;DHT22;2229;48.708;9.706;2023-05-10T01:36:40;14.90;99.90
4433;DHT22;2229;48.708;9.706;2023-05-10T01:39:15;14.80;99.90
4433;DHT22;2229;48.708;9.706;2023-05-10T01:41:49;14.80;99.90
4433;DHT22;2229;48.708;9.706;2023-05-10T01:44:27;14.70;99.90
4433;DHT22;2229;48.708;9.706;2023-05-10T01:47:03;14.60;99.90
4433;DHT22;2229;48.708;9.706;2023-05-10T01:49:36;14.70;99.90
4433;DHT22;2229;48.708;9.706;2023-05-10T01:52:10;14.70;99.90
4433;DHT22;2229;48.708;9.706;2023-05-10T01:54:42;14.60;99.90
4433;DHT22;2229;48.708;9.706;2023-05-10T01:57:11;14.60;99.90
4433;DHT22;2229;48.708;9.706;2023-05-10T01:59:43;14.60;99.90
4433;DHT22;2229;48.708;9.706;2023-05-10T02:02:15;14.50;99.90
4433;DHT22;2229;48.708;9.706;2023-05-10T02:04:48;14.50;99.90
4433;DHT22;2229;48.708;9.706;2023-05-10T02:07:17;14.40;99.90
4433;DHT22;2229;48.708;9.706;2023-05-10T02:09:45;14.40;99.90
4433;DHT22;2229;48.708;9.706;2023-05-10T02:12:15;14.30;99.90
4433;DHT22;2229;48.708;9.706;2023-05-10T02:14:43;14.30;99.90
4433;DHT22;2229;48.708;9.706;2023-05-10T02:17:12;14.20;99.90
4433;DHT22;2229;48.708;9.706;2023-05-10T02:19:41;14.20;99.90
4433;DHT22;2229;48.708;9.706;2023-05-10T02:22:11;14.10;99.90
4433;DHT22;2229;48.708;9.706;2023-05-10T02:24:39;14.10;99.90
4433;DHT22;2229;48.708;9.706;2023-05-10T02:27:08;14.20;99.90
4433;DHT22;2229;48.708;9.706;2023-05-10T02:29:36;14.20;99.90
4433;DHT22;2229;48.708;9.706;2023-05-10T02:32:04;14.10;99.90
4433;DHT22;2229;48.708;9.706;2023-05-10T02:34:32;14.20;99.90
4433;DHT22;2229;48.708;9.706;2023-05-10T02:37:00;14.10;99.90
4433;DHT22;2229;48.708;9.706;2023-05-10T02:39:31;14.10;99.90
4433;DHT22;2229;48.708;9.706;2023-05-10T02:42:00;14.10;99.90
4433;DHT22;2229;48.708;9.706;2023-05-10T02:44:29;14.10;99.90
4433;DHT22;2229;48.708;9.706;2023-05-10T02:46:57;14.00;99.90
4433;DHT22;2229;48.708;9.706;2023-05-10T02:49:24;14.10;99.90
4433;DHT22;2229;48.708;9.706;2023-05-10T02:51:57;14.10;99.90
4433;DHT22;2229;48.708;9.706;2023-05-10T02:54:31;14.00;99.90
4433;DHT22;2229;48.708;9.706;2023-05-10T02:57:03;14.00;99.90
4433;DHT22;2229;48.708;9.706;2023-05-10T02:59:32;14.00;99.90
4433;DHT22;2229;48.708;9.706;2023-05-10T03:02:00;14.00;99.90
4433;DHT22;2229;48.708;9.706;2023-05-10T03:04:28;14.00;99.90
4433;DHT22;2229;48.708;9.706;2023-05-10T03:06:56;13.90;99.90
4433;DHT22;2229;48.708;9.706;2023-05-10T03:09:23;13.90;99.90
4433;DHT22;2229;48.708;9.706;2023-05-10T03:11:56;13.90;99.90
4433;DHT22;2229;48.708;9.706;2023-05-10T03:14:41;13.80;99.90
4433;DHT22;2229;48.708;9.706;2023-05-10T03:17:16;13.80;99.90
4433;DHT22;2229;48.708;9.706;2023-05-10T03:19:53;13.80;99.90
4433;DHT22;2229;48.708;9.706;2023-05-10T03:22:25;13.70;99.90
4433;DHT22;2229;48.708;9.706;2023-05-10T03:24:55;13.70;99.90
4433;DHT22;2229;48.708;9.706;2023-05-10T03:27:27;13.70;99.90
4433;DHT22;2229;48.708;9.706;2023-05-10T03:29:55;13.70;99.90
4433;DHT22;2229;48.708;9.706;2023-05-10T03:32:24;13.70;99.90
4433;DHT22;2229;48.708;9.706;2023-05-10T03:34:51;13.70;99.90
4433;DHT22;2229;48.708;9.706;2023-05-10T03:37:19;13.70;99.90
4433;DHT22;2229;48.708;9.706;2023-05-10T03:39:46;13.70;99.90
4433;DHT22;2229;48.708;9.706;2023-05-10T03:42:17;13.70;99.90
4433;DHT22;2229;48.708;9.706;2023-05-10T03:44:46;13.70;99.90
4433;DHT22;2229;48.708;9.706;2023-05-10T03:47:15;13.80;99.90
4433;DHT22;2229;48.708;9.706;2023-05-10T03:49:42;13.80;99.90
4433;DHT22;2229;48.708;9.706;2023-05-10T03:52:11;13.80;99.90
4433;DHT22;2229;48.708;9.706;2023-05-10T03:54:38;13.80;99.90
4433;DHT22;2229;48.708;9.706;2023-05-10T03:57:05;13.80;99.90
4433;DHT22;2229;48.708;9.706;2023-05-10T03:59:33;13.80;99.90
4433;DHT22;2229;48.708;9.706;2023-05-10T04:02:02;13.80;99.90
4433;DHT22;2229;48.708;9.706;2023-05-10T04:04:30;13.80;99.90
4433;DHT22;2229;48.708;9.706;2023-05-10T04:06:57;13.80;99.90
4433;DHT22;2229;48.708;9.706;2023-05-10T04:09:25;13.80;99.90
4433;DHT22;2229;48.708;9.706;2023-05-10T04:11:52;13.80;99.90
4433;DHT22;2229;48.708;9.706;2023-05-10T04:14:20;13.80;99.90
4433;DHT22;2229;48.708;9.706;2023-05-10T04:16:47;13.90;99.90
4433;DHT22;2229;48.708;9.706;2023-05-10T04:19:16;13.90;99.90
4433;DHT22;2229;48.708;9.706;2023-05-10T04:21:44;13.90;99.90
4433;DHT22;2229;48.708;9.706;2023-05-10T04:24:12;13.90;99.90
4433;DHT22;2229;48.708;9.706;2023-05-10T04:26:41;14.10;99.90
4433;DHT22;2229;48.708;9.706;2023-05-10T04:29:08;14.00;99.90
4433;DHT22;2229;48.708;9.706;2023-05-10T04:31:35;14.10;99.90
4433;DHT22;2229;48.708;9.706;2023-05-10T04:34:04;14.10;99.90
4433;DHT22;2229;48.708;9.706;2023-05-10T04:36:33;14.20;99.90
4433;DHT22;2229;48.708;9.706;2023-05-10T04:39:02;14.20;99.90
4433;DHT22;2229;48.708;9.706;2023-05-10T04:41:30;14.20;99.90
4433;DHT22;2229;48.708;9.706;2023-05-10T04:43:58;14.30;99.90
4433;DHT22;2229;48.708;9.706;2023-05-10T04:46:26;14.20;99.90
4433;DHT22;2229;48.708;9.706;2023-05-10T04:48:54;14.20;99.90
4433;DHT22;2229;48.708;9.706;2023-05-10T04:51:22;14.30;99.90
4433;DHT22;2229;48.708;9.706;2023-05-10T04:53:52;14.20;99.90
4433;DHT22;2229;48.708;9.706;2023-05-10T04:56:20;14.30;99.90
4433;DHT22;2229;48.708;9.706;2023-05-10T04:58:49;14.30;99.90
4433;DHT22;2229;48.708;9.706;2023-05-10T05:01:16;14.30;99.90
4433;DHT22;2229;48.708;9.706;2023-05-10T05:03:44;14.30;99.90
4433;DHT22;2229;48.708;9.706;2023-05-10T05:06:11;14.30;99.90
4433;DHT22;2229;48.708;9.706;2023-05-10T05:08:38;14.20;99.90
4433;DHT22;2229;48.708;9.706;2023-05-10T05:11:07;14.20;99.90
4433;DHT22;2229;48.708;9.706;2023-05-10T05:13:34;14.20;99.90
4433;DHT22;2229;48.708;9.706;2023-05-10T05:16:02;14.20;99.90
4433;DHT22;2229;48.708;9.706;2023-05-10T05:18:30;14.20;99.90
4433;DHT22;2229;48.708;9.706;2023-05-10T05:20:58;14.20;99.90
4433;DHT22;2229;48.708;9.706;2023-05-10T05:23:26;14.20;99.90
4433;DHT22;2229;48.708;9.706;2023-05-10T05:25:56;14.20;99.90
4433;DHT22;2229;48.708;9.706;2023-05-10T05:28:25;14.20;99.90
4433;DHT22;2229;48.708;9.706;2023-05-10T05:30:52;14.20;99.90
4433;DHT22;2229;48.708;9.706;2023-05-10T05:33:19;14.20;99.90
4433;DHT22;2229;48.708;9.706;2023-05-10T05:35:46;14.20;99.90
4433;DHT22;2229;48.708;9.706;2023-05-10T05:38:18;14.30;99.90
4433;DHT22;2229;48.708;9.706;2023-05-10T05:40:45;14.30;99.90
4433;DHT22;2229;48.708;9.706;2023-05-10T05:43:12;14.30;99.90
4433;DHT22;2229;48.708;9.706;2023-05-10T05:45:41;14.30;99.90
4433;DHT22;2229;48.708;9.706;2023-05-10T05:48:09;14.30;99.90
4433;DHT22;2229;48.708;9.706;2023-05-10T05:50:37;14.40;99.90
4433;DHT22;2229;48.708;9.706;2023-05-10T05:53:04;14.40;99.90
4433;DHT22;2229;48.708;9.706;2023-05-10T05:55:31;14.40;99.90
4433;DHT22;2229;48.708;9.706;2023-05-10T05:58:00;14.40;99.90
4433;DHT22;2229;48.708;9.706;2023-05-10T06:00:28;14.40;99.90
4433;DHT22;2229;48.708;9.706;2023-05-10T06:02:56;14.40;99.90
4433;DHT22;2229;48.708;9.706;2023-05-10T06:05:23;14.50;99.90
4433;DHT22;2229;48.708;9.706;2023-05-10T06:07:51;14.60;99.90
4433;DHT22;2229;48.708;9.706;2023-05-10T06:10:18;14.70;99.90
4433;DHT22;2229;48.708;9.706;2023-05-10T06:12:45;14.70;99.90
4433;DHT22;2229;48.708;9.706;2023-05-10T06:15:13;14.70;99.90
4433;DHT22;2229;48.708;9.706;2023-05-10T06:17:40;14.70;99.90
4433;DHT22;2229;48.708;9.706;2023-05-10T06:20:12;14.70;99.90
4433;DHT22;2229;48.708;9.706;2023-05-10T06:22:39;14.70;99.90
4433;DHT22;2229;48.708;9.706;2023-05-10T06:25:07;14.70;99.90
4433;DHT22;2229;48.708;9.706;2023-05-10T06:27:36;14.70;99.90
4433;DHT22;2229;48.708;9.706;2023-05-10T06:30:03;14.70;99.90
4433;DHT22;2229;48.708;9.706;2023-05-10T06:32:31;14.70;99.90
4433;DHT22;2229;48.708;9.706;2023-05-10T06:34:59;14.70;99.90
4433;DHT22;2229;48.708;9.706;2023-05-10T06:37:29;14.70;99.90
4433;DHT22;2229;48.708;9.706;2023-05-10T06:39:56;14.70;99.90
4433;DHT22;2229;48.708;9.706;2023-05-10T06:42:24;14.70;99.90
4433;DHT22;2229;48.708;9.706;2023-05-10T06:44:51;14.70;99.90
4433;DHT22;2229;48.708;9.706;2023-05-10T06:47:18;14.70;99.90
4433;DHT22;2229;48.708;9.706;2023-05-10T06:49:46;14.70;99.90
4433;DHT22;2229;48.708;9.706;2023-05-10T06:52:13;14.70;99.90
4433;DHT22;2229;48.708;9.706;2023-05-10T06:54:42;14.70;99.90
4433;DHT22;2229;48.708;9.706;2023-05-10T06:57:12;14.70;99.90
4433;DHT22;2229;48.708;9.706;2023-05-10T06:59:39;14.70;99.90
4433;DHT22;2229;48.708;9.706;2023-05-10T07:02:06;14.70;99.90
4433;DHT22;2229;48.708;9.706;2023-05-10T07:04:34;14.70;99.90
4433;DHT22;2229;48.708;9.706;2023-05-10T07:07:01;14.70;99.90
4433;DHT22;2229;48.708;9.706;2023-05-10T07:09:28;14.70;99.90
4433;DHT22;2229;48.708;9.706;2023-05-10T07:11:57;14.70;99.90
4433;DHT22;2229;48.708;9.706;2023-05-10T07:14:24;14.80;99.90
4433;DHT22;2229;48.708;9.706;2023-05-10T07:16:52;14.80;99.90
4433;DHT22;2229;48.708;9.706;2023-05-10T07:19:19;14.80;99.90
4433;DHT22;2229;48.708;9.706;2023-05-10T07:21:46;14.80;99.90
4433;DHT22;2229;48.708;9.706;2023-05-10T07:24:13;14.90;99.90
4433;DHT22;2229;48.708;9.706;2023-05-10T07:26:41;14.90;99.90
4433;DHT22;2229;48.708;9.706;2023-05-10T07:29:09;14.90;99.90
4433;DHT22;2229;48.708;9.706;2023-05-10T07:31:36;14.90;99.90
4433;DHT22;2229;48.708;9.706;2023-05-10T07:34:03;14.90;99.90
4433;DHT22;2229;48.708;9.706;2023-05-10T07:36:31;14.90;99.90
4433;DHT22;2229;48.708;9.706;2023-05-10T07:38:58;14.90;99.90
4433;DHT22;2229;48.708;9.706;2023-05-10T07:41:26;14.90;99.90
4433;DHT22;2229;48.708;9.706;2023-05-10T07:43:54;14.90;99.90
4433;DHT22;2229;48.708;9.706;2023-05-10T07:46:22;14.90;99.90
4433;DHT22;2229;48.708;9.706;2023-05-10T07:48:49;15.00;99.90
4433;DHT22;2229;48.708;9.706;2023-05-10T07:51:17;15.00;99.90
4433;DHT22;2229;48.708;9.706;2023-05-10T07:53:44;15.00;99.90
4433;DHT22;2229;48.708;9.706;2023-05-10T07:56:22;15.10;99.90
4433;DHT22;2229;48.708;9.706;2023-05-10T07:58:51;15.20;99.90
4433;DHT22;2229;48.708;9.706;2023-05-10T08:01:19;15.20;99.90
4433;DHT22;2229;48.708;9.706;2023-05-10T08:03:48;15.20;99.90
4433;DHT22;2229;48.708;9.706;2023-05-10T08:06:17;15.50;99.90
4433;DHT22;2229;48.708;9.706;2023-05-10T08:08:45;15.20;99.90
4433;DHT22;2229;48.708;9.706;2023-05-10T08:11:16;15.30;99.90
4433;DHT22;2229;48.708;9.706;2023-05-10T08:13:43;15.30;99.90
4433;DHT22;2229;48.708;9.706;2023-05-10T08:16:11;15.30;99.90
4433;DHT22;2229;48.708;9.706;2023-05-10T08:18:39;15.30;99.90
4433;DHT22;2229;48.708;9.706;2023-05-10T08:21:07;15.30;99.90
4433;DHT22;2229;48.708;9.706;2023-05-10T08:23:37;15.40;99.90
4433;DHT22;2229;48.708;9.706;2023-05-10T08:26:04;15.50;99.90
4433;DHT22;2229;48.708;9.706;2023-05-10T08:28:31;15.70;99.90
4433;DHT22;2229;48.708;9.706;2023-05-10T08:30:58;15.80;99.90
4433;DHT22;2229;48.708;9.706;2023-05-10T08:33:26;16.00;99.90
4433;DHT22;2229;48.708;9.706;2023-05-10T08:35:53;16.10;99.90
4433;DHT22;2229;48.708;9.706;2023-05-10T08:38:21;16.30;99.90
4433;DHT22;2229;48.708;9.706;2023-05-10T08:40:49;16.40;99.90
4433;DHT22;2229;48.708;9.706;2023-05-10T08:43:22;16.50;99.90
4433;DHT22;2229;48.708;9.706;2023-05-10T08:45:54;16.60;99.90
4433;DHT22;2229;48.708;9.706;2023-05-10T08:48:23;16.70;99.90
4433;DHT22;2229;48.708;9.706;2023-05-10T08:50:53;16.70;99.90
4433;DHT22;2229;48.708;9.706;2023-05-10T08:53:24;16.80;99.90
4433;DHT22;2229;48.708;9.706;2023-05-10T08:55:53;16.90;99.90
4433;DHT22;2229;48.708;9.706;2023-05-10T08:58:21;17.10;99.90
4433;DHT22;2229;48.708;9.706;2023-05-10T09:00:49;17.10;99.90
4433;DHT22;2229;48.708;9.706;2023-05-10T09:03:18;17.20;99.90
4433;DHT22;2229;48.708;9.706;2023-05-10T09:05:45;17.20;99.90
4433;DHT22;2229;48.708;9.706;2023-05-10T09:08:13;17.40;99.90
4433;DHT22;2229;48.708;9.706;2023-05-10T09:10:44;17.40;99.90
4433;DHT22;2229;48.708;9.706;2023-05-10T09:13:14;17.40;99.90
4433;DHT22;2229;48.708;9.706;2023-05-10T09:15:43;17.40;99.90
4433;DHT22;2229;48.708;9.706;2023-05-10T09:18:13;17.40;99.90
4433;DHT22;2229;48.708;9.706;2023-05-10T09:20:40;17.40;99.90
4433;DHT22;2229;48.708;9.706;2023-05-10T09:23:08;17.40;99.90
4433;DHT22;2229;48.708;9.706;2023-05-10T09:25:36;17.30;99.90
4433;DHT22;2229;48.708;9.706;2023-05-10T09:28:08;17.30;99.90
4433;DHT22;2229;48.708;9.706;2023-05-10T09:30:35;17.30;99.90
4433;DHT22;2229;48.708;9.706;2023-05-10T09:33:03;17.20;99.90
4433;DHT22;2229;48.708;9.706;2023-05-10T09:35:31;17.10;99.90
4433;DHT22;2229;48.708;9.706;2023-05-10T09:38:02;17.10;99.90
4433;DHT22;2229;48.708;9.706;2023-05-10T09:40:31;17.10;99.90
4433;DHT22;2229;48.708;9.706;2023-05-10T09:42:59;17.00;99.90
4433;DHT22;2229;48.708;9.706;2023-05-10T09:45:31;16.80;99.90
4433;DHT22;2229;48.708;9.706;2023-05-10T09:48:00;16.60;99.90
4433;DHT22;2229;48.708;9.706;2023-05-10T09:50:29;16.40;99.90
4433;DHT22;2229;48.708;9.706;2023-05-10T09:52:58;16.30;99.90
4433;DHT22;2229;48.708;9.706;2023-05-10T09:55:38;16.20;99.90
4433;DHT22;2229;48.708;9.706;2023-05-10T09:58:06;16.20;99.90
4433;DHT22;2229;48.708;9.706;2023-05-10T10:00:40;16.20;99.90
4433;DHT22;2229;48.708;9.706;2023-05-10T10:03:13;16.20;99.90
4433;DHT22;2229;48.708;9.706;2023-05-10T10:05:42;16.20;99.90
4433;DHT22;2229;48.708;9.706;2023-05-10T10:08:10;16.10;99.90
4433;DHT22;2229;48.708;9.706;2023-05-10T10:10:37;16.00;99.90
4433;DHT22;2229;48.708;9.706;2023-05-10T10:13:06;15.80;99.90
4433;DHT22;2229;48.708;9.706;2023-05-10T10:15:34;15.70;99.90
4433;DHT22;2229;48.708;9.706;2023-05-10T10:18:05;15.70;99.90
4433;DHT22;2229;48.708;9.706;2023-05-10T10:20:37;15.60;99.90
4433;DHT22;2229;48.708;9.706;2023-05-10T10:23:04;15.50;99.90
4433;DHT22;2229;48.708;9.706;2023-05-10T10:25:31;15.50;99.90
4433;DHT22;2229;48.708;9.706;2023-05-10T10:28:16;15.50;99.90
4433;DHT22;2229;48.708;9.706;2023-05-10T10:30:48;15.50;99.90
4433;DHT22;2229;48.708;9.706;2023-05-10T10:33:33;15.50;99.90
4433;DHT22;2229;48.708;9.706;2023-05-10T10:36:04;15.70;99.90
4433;DHT22;2229;48.708;9.706;2023-05-10T10:38:59;15.80;99.90
4433;DHT22;2229;48.708;9.706;2023-05-10T10:41:29;15.90;99.90
4433;DHT22;2229;48.708;9.706;2023-05-10T10:44:26;16.00;99.90
4433;DHT22;2229;48.708;9.706;2023-05-10T10:47:05;16.10;99.90
4433;DHT22;2229;48.708;9.706;2023-05-10T10:49:43;16.20;99.90
4433;DHT22;2229;48.708;9.706;2023-05-10T10:52:30;16.10;99.90
4433;DHT22;2229;48.708;9.706;2023-05-10T10:55:01;15.90;99.90
4433;DHT22;2229;48.708;9.706;2023-05-10T10:57:43;15.80;99.90
4433;DHT22;2229;48.708;9.706;2023-05-10T11:00:34;15.80;99.90
4433;DHT22;2229;48.708;9.706;2023-05-10T11:03:04;15.70;99.90
4433;DHT22;2229;48.708;9.706;2023-05-10T11:05:38;15.60;99.90
4433;DHT22;2229;48.708;9.706;2023-05-10T11:08:11;15.70;99.90
4433;DHT22;2229;48.708;9.706;2023-05-10T11:10:39;15.80;99.90
4433;DHT22;2229;48.708;9.706;2023-05-10T11:13:09;15.90;99.90
4433;DHT22;2229;48.708;9.706;2023-05-10T11:15:38;16.00;99.90
4433;DHT22;2229;48.708;9.706;2023-05-10T11:18:18;16.10;99.90
4433;DHT22;2229;48.708;9.706;2023-05-10T11:20:52;16.10;99.90
4433;DHT22;2229;48.708;9.706;2023-05-10T11:23:20;16.20;99.90
4433;DHT22;2229;48.708;9.706;2023-05-10T11:25:49;16.30;99.90
4433;DHT22;2229;48.708;9.706;2023-05-10T11:28:17;16.40;99.90
4433;DHT22;2229;48.708;9.706;2023-05-10T11:30:45;16.50;99.90
4433;DHT22;2229;48.708;9.706;2023-05-10T11:33:16;16.70;99.90
4433;DHT22;2229;48.708;9.706;2023-05-10T11:35:43;16.90;99.90
4433;DHT22;2229;48.708;9.706;2023-05-10T11:38:13;17.20;99.90
4433;DHT22;2229;48.708;9.706;2023-05-10T11:40:41;17.40;99.90
4433;DHT22;2229;48.708;9.706;2023-05-10T11:43:09;17.60;99.90
4433;DHT22;2229;48.708;9.706;2023-05-10T11:45:41;17.80;99.90
4433;DHT22;2229;48.708;9.706;2023-05-10T11:48:08;17.90;99.90
4433;DHT22;2229;48.708;9.706;2023-05-10T11:50:36;18.00;99.90
4433;DHT22;2229;48.708;9.706;2023-05-10T11:53:03;18.10;99.90
4433;DHT22;2229;48.708;9.706;2023-05-10T11:55:35;18.20;99.90
4433;DHT22;2229;48.708;9.706;2023-05-10T11:58:03;18.20;99.90
4433;DHT22;2229;48.708;9.706;2023-05-10T12:00:31;18.20;99.90
4433;DHT22;2229;48.708;9.706;2023-05-10T12:03:00;18.00;99.90
4433;DHT22;2229;48.708;9.706;2023-05-10T12:05:32;17.90;99.90
4433;DHT22;2229;48.708;9.706;2023-05-10T12:08:13;17.70;99.90
4433;DHT22;2229;48.708;9.706;2023-05-10T12:10:42;17.60;99.90
4433;DHT22;2229;48.708;9.706;2023-05-10T12:13:12;17.30;99.90
4433;DHT22;2229;48.708;9.706;2023-05-10T12:15:41;17.00;99.90
4433;DHT22;2229;48.708;9.706;2023-05-10T12:18:09;16.70;99.90
4433;DHT22;2229;48.708;9.706;2023-05-10T12:20:37;16.40;99.90
4433;DHT22;2229;48.708;9.706;2023-05-10T12:23:05;16.00;99.90
4433;DHT22;2229;48.708;9.706;2023-05-10T12:25:33;15.60;99.90
4433;DHT22;2229;48.708;9.706;2023-05-10T12:28:03;15.20;99.90
4433;DHT22;2229;48.708;9.706;2023-05-10T12:30:33;14.90;99.90
4433;DHT22;2229;48.708;9.706;2023-05-10T12:33:02;14.70;99.90
4433;DHT22;2229;48.708;9.706;2023-05-10T12:35:32;14.50;99.90
4433;DHT22;2229;48.708;9.706;2023-05-10T12:38:00;14.30;99.90
4433;DHT22;2229;48.708;9.706;2023-05-10T12:40:27;14.10;99.90
4433;DHT22;2229;48.708;9.706;2023-05-10T12:42:54;14.00;99.90
4433;DHT22;2229;48.708;9.706;2023-05-10T12:45:23;13.80;99.90
4433;DHT22;2229;48.708;9.706;2023-05-10T12:47:50;13.60;99.90
4433;DHT22;2229;48.708;9.706;2023-05-10T12:50:17;13.50;99.90
4433;DHT22;2229;48.708;9.706;2023-05-10T12:52:44;13.40;99.90
4433;DHT22;2229;48.708;9.706;2023-05-10T12:55:11;13.30;99.90
4433;DHT22;2229;48.708;9.706;2023-05-10T12:57:39;13.20;99.90
4433;DHT22;2229;48.708;9.706;2023-05-10T13:00:07;13.20;99.90
4433;DHT22;2229;48.708;9.706;2023-05-10T13:02:36;13.20;99.90
4433;DHT22;2229;48.708;9.706;2023-05-10T13:05:04;13.20;99.90
4433;DHT22;2229;48.708;9.706;2023-05-10T13:07:31;13.20;99.90
4433;DHT22;2229;48.708;9.706;2023-05-10T13:09:58;13.20;99.90
4433;DHT22;2229;48.708;9.706;2023-05-10T13:12:25;13.30;99.90
4433;DHT22;2229;48.708;9.706;2023-05-10T13:14:53;13.40;99.90
4433;DHT22;2229;48.708;9.706;2023-05-10T13:17:20;13.40;99.90
4433;DHT22;2229;48.708;9.706;2023-05-10T13:19:48;13.50;99.90
4433;DHT22;2229;48.708;9.706;2023-05-10T13:22:15;13.60;99.90
4433;DHT22;2229;48.708;9.706;2023-05-10T13:24:43;13.80;99.90
4433;DHT22;2229;48.708;9.706;2023-05-10T13:27:10;13.80;99.90
4433;DHT22;2229;48.708;9.706;2023-05-10T13:29:38;13.90;99.90
4433;DHT22;2229;48.708;9.706;2023-05-10T13:32:06;14.00;99.90
4433;DHT22;2229;48.708;9.706;2023-05-10T13:34:35;14.10;99.90
4433;DHT22;2229;48.708;9.706;2023-05-10T13:37:04;14.30;99.90
4433;DHT22;2229;48.708;9.706;2023-05-10T13:39:31;14.40;99.90
4433;DHT22;2229;48.708;9.706;2023-05-10T13:42:00;14.60;99.90
4433;DHT22;2229;48.708;9.706;2023-05-10T13:44:28;14.70;99.90
4433;DHT22;2229;48.708;9.706;2023-05-10T13:46:56;14.80;99.90
4433;DHT22;2229;48.708;9.706;2023-05-10T13:49:23;14.90;99.90
4433;DHT22;2229;48.708;9.706;2023-05-10T13:51:50;15.10;99.90
4433;DHT22;2229;48.708;9.706;2023-05-10T13:54:19;15.20;99.90
4433;DHT22;2229;48.708;9.706;2023-05-10T13:56:47;15.30;99.90
4433;DHT22;2229;48.708;9.706;2023-05-10T13:59:16;15.40;99.90
4433;DHT22;2229;48.708;9.706;2023-05-10T14:01:43;15.50;99.90
4433;DHT22;2229;48.708;9.706;2023-05-10T14:04:11;15.60;99.90
4433;DHT22;2229;48.708;9.706;2023-05-10T14:06:38;15.70;99.90
4433;DHT22;2229;48.708;9.706;2023-05-10T14:09:06;15.80;99.90
4433;DHT22;2229;48.708;9.706;2023-05-10T14:11:35;15.90;99.90
4433;DHT22;2229;48.708;9.706;2023-05-10T14:14:02;16.10;99.90
4433;DHT22;2229;48.708;9.706;2023-05-10T14:16:29;16.10;99.90
4433;DHT22;2229;48.708;9.706;2023-05-10T14:18:56;16.20;99.90
4433;DHT22;2229;48.708;9.706;2023-05-10T14:21:24;16.30;99.90
4433;DHT22;2229;48.708;9.706;2023-05-10T14:23:51;16.40;99.90
4433;DHT22;2229;48.708;9.706;2023-05-10T14:26:18;16.50;99.90
4433;DHT22;2229;48.708;9.706;2023-05-10T14:28:47;16.60;99.90
4433;DHT22;2229;48.708;9.706;2023-05-10T14:31:15;16.60;99.90
4433;DHT22;2229;48.708;9.706;2023-05-10T14:33:42;16.60;99.90
4433;DHT22;2229;48.708;9.706;2023-05-10T14:36:10;16.60;99.90
4433;DHT22;2229;48.708;9.706;2023-05-10T14:38:37;16.70;99.90
4433;DHT22;2229;48.708;9.706;2023-05-10T14:41:04;16.70;99.90
4433;DHT22;2229;48.708;9.706;2023-05-10T14:43:31;16.60;99.90
4433;DHT22;2229;48.708;9.706;2023-05-10T14:46:00;16.70;99.90
4433;DHT22;2229;48.708;9.706;2023-05-10T14:48:27;16.70;99.90
4433;DHT22;2229;48.708;9.706;2023-05-10T14:50:55;16.70;99.90
4433;DHT22;2229;48.708;9.706;2023-05-10T14:53:22;16.70;99.90
4433;DHT22;2229;48.708;9.706;2023-05-10T14:55:49;16.70;99.90
4433;DHT22;2229;48.708;9.706;2023-05-10T14:58:17;16.70;99.90
4433;DHT22;2229;48.708;9.706;2023-05-10T15:00:44;16.70;99.90
4433;DHT22;2229;48.708;9.706;2023-05-10T15:03:13;16.70;99.90
4433;DHT22;2229;48.708;9.706;2023-05-10T15:05:41;16.70;99.90
4433;DHT22;2229;48.708;9.706;2023-05-10T15:08:08;16.70;99.90
4433;DHT22;2229;48.708;9.706;2023-05-10T15:10:35;16.60;99.90
4433;DHT22;2229;48.708;9.706;2023-05-10T15:13:03;16.60;99.90
4433;DHT22;2229;48.708;9.706;2023-05-10T15:15:31;16.60;99.90
4433;DHT22;2229;48.708;9.706;2023-05-10T15:17:58;16.60;99.90
4433;DHT22;2229;48.708;9.706;2023-05-10T15:20:26;16.60;99.90
4433;DHT22;2229;48.708;9.706;2023-05-10T15:22:53;16.60;99.90
4433;DHT22;2229;48.708;9.706;2023-05-10T15:25:20;16.60;99.90
4433;DHT22;2229;48.708;9.706;2023-05-10T15:27:49;16.60;99.90
4433;DHT22;2229;48.708;9.706;2023-05-10T15:30:16;16.60;99.90
4433;DHT22;2229;48.708;9.706;2023-05-10T15:32:43;16.50;99.90
4433;DHT22;2229;48.708;9.706;2023-05-10T15:35:11;16.50;99.90
4433;DHT22;2229;48.708;9.706;2023-05-10T15:37:40;16.50;99.90
4433;DHT22;2229;48.708;9.706;2023-05-10T15:40:07;16.50;99.90
4433;DHT22;2229;48.708;9.706;2023-05-10T15:42:35;16.40;99.90
4433;DHT22;2229;48.708;9.706;2023-05-10T15:45:03;16.50;99.90
4433;DHT22;2229;48.708;9.706;2023-05-10T15:47:30;16.40;99.90
4433;DHT22;2229;48.708;9.706;2023-05-10T15:49:57;16.40;99.90
4433;DHT22;2229;48.708;9.706;2023-05-10T15:52:25;16.40;99.90
4433;DHT22;2229;48.708;9.706;2023-05-10T15:54:53;16.40;99.90
4433;DHT22;2229;48.708;9.706;2023-05-10T15:57:20;16.40;99.90
4433;DHT22;2229;48.708;9.706;2023-05-10T15:59:48;16.30;99.90
4433;DHT22;2229;48.708;9.706;2023-05-10T16:02:15;16.30;99.90
4433;DHT22;2229;48.708;9.706;2023-05-10T16:04:44;16.30;99.90
4433;DHT22;2229;48.708;9.706;2023-05-10T16:07:11;16.30;99.90
4433;DHT22;2229;48.708;9.706;2023-05-10T16:09:38;16.20;99.90
4433;DHT22;2229;48.708;9.706;2023-05-10T16:12:07;16.20;99.90
4433;DHT22;2229;48.708;9.706;2023-05-10T16:14:37;16.20;99.90
4433;DHT22;2229;48.708;9.706;2023-05-10T16:17:04;16.20;99.90